createdAt,value
2018-05-10T00:02:14.032Z,12.40
2018-05-10T00:06:47.230Z,12.80
2018-05-10T00:11:20.437Z,12.10
2018-05-10T00:15:53.633Z,12.32
2018-05-10T00:20:26.826Z,12.50
2018-05-10T00:25:00.025Z,12.60
2018-05-10T00:29:33.222Z,13.48
2018-05-10T00:34:06.419Z,12.98
2018-05-10T00:38:40.284Z,13.20
2018-05-10T00:43:13.470Z,13.70
2018-05-10T00:47:46.662Z,13.80
2018-05-10T00:52:19.886Z,13.80
2018-05-10T00:56:53.059Z,13.52
2018-05-10T01:01:26.246Z,13.47
2018-05-10T01:06:00.282Z,13.77
2018-05-10T01:10:33.419Z,13.30
2018-05-10T01:15:06.614Z,14.97
2018-05-10T01:19:39.806Z,14.93
2018-05-10T01:24:13.757Z,14.73
2018-05-10T01:28:46.988Z,14.13
2018-05-10T01:33:20.158Z,14.70
2018-05-10T01:37:53.363Z,14.93
2018-05-10T01:42:26.559Z,15.30
2018-05-10T01:47:00.076Z,15.57
2018-05-10T01:51:33.361Z,17.10
2018-05-10T01:56:07.291Z,18.73
2018-05-10T02:00:41.251Z,18.80
2018-05-10T02:05:14.447Z,17.43
2018-05-10T02:09:47.658Z,18.47
2018-05-10T02:14:20.829Z,19.77
2018-05-10T02:18:54.790Z,19.10
2018-05-10T02:23:27.982Z,19.40
2018-05-10T02:28:01.517Z,18.57
2018-05-10T02:32:34.721Z,17.53
2018-05-10T02:37:07.943Z,19.77
2018-05-10T02:41:41.142Z,21.37
2018-05-10T02:46:14.321Z,21.40
2018-05-10T02:50:47.539Z,23.03
2018-05-10T02:55:20.711Z,20.43
2018-05-10T02:59:54.691Z,19.30
2018-05-10T03:04:28.078Z,19.07
2018-05-10T03:09:01.277Z,19.53
2018-05-10T03:13:34.490Z,20.53
2018-05-10T03:18:07.677Z,20.23
2018-05-10T03:22:41.650Z,19.67
2018-05-10T03:27:14.819Z,21.13
2018-05-10T03:31:48.037Z,21.20
2018-05-10T03:36:21.237Z,21.23
2018-05-10T03:40:54.434Z,20.10
2018-05-10T03:45:27.639Z,20.17
2018-05-10T03:50:00.859Z,20.90
2018-05-10T03:54:34.071Z,22.23
2018-05-10T03:59:07.242Z,24.67
2018-05-10T04:03:53.218Z,25.63
2018-05-10T04:08:38.319Z,28.93
2018-05-10T04:13:12.419Z,26.93
2018-05-10T04:17:45.622Z,28.93
2018-05-10T04:22:18.876Z,30.20
2018-05-10T04:26:52.851Z,30.37
2018-05-10T04:31:26.027Z,30.93
2018-05-10T04:35:59.540Z,31.30
2018-05-10T04:40:32.735Z,30.47
2018-05-10T04:45:06.695Z,28.08
2018-05-10T04:49:40.003Z,30.50
2018-05-10T04:54:13.194Z,31.43
2018-05-10T04:58:46.418Z,33.40
2018-05-10T05:03:19.610Z,35.67
2018-05-10T05:07:52.811Z,40.45
2018-05-10T05:12:26.002Z,41.53
2018-05-10T05:16:59.947Z,39.90
2018-05-10T05:21:33.223Z,42.17
2018-05-10T05:26:07.268Z,40.75
2018-05-10T05:30:40.480Z,37.92
2018-05-10T05:35:14.314Z,38.33
2018-05-10T05:39:47.483Z,40.33
2018-05-10T05:44:21.570Z,39.65
2018-05-10T05:48:54.749Z,39.60
2018-05-10T05:53:28.021Z,39.60
2018-05-10T05:58:02.049Z,38.88
2018-05-10T06:02:36.218Z,37.72
2018-05-10T06:07:09.394Z,38.17
2018-05-10T06:11:43.777Z,38.35
2018-05-10T06:16:16.962Z,36.40
2018-05-10T06:20:50.338Z,38.30
2018-05-10T06:25:23.871Z,38.13
2018-05-10T06:29:57.190Z,36.58
2018-05-10T06:34:30.631Z,36.20
2018-05-10T06:39:03.983Z,34.72
2018-05-10T06:43:37.273Z,34.40
2018-05-10T06:48:10.806Z,34.60
2018-05-10T06:52:44.835Z,32.55
2018-05-10T06:57:18.935Z,32.20
2018-05-10T07:01:53.856Z,33.60
2018-05-10T07:06:27.074Z,34.53
2018-05-10T07:11:00.238Z,36.38
2018-05-10T07:15:33.431Z,36.17
2018-05-10T07:20:07.402Z,35.88
2018-05-10T07:24:40.591Z,37.70
2018-05-10T07:29:13.945Z,36.67
2018-05-10T07:33:47.276Z,39.17
2018-05-10T07:38:20.602Z,38.03
2018-05-10T07:42:53.795Z,39.10
2018-05-10T07:47:27.776Z,39.53
2018-05-10T07:52:01.007Z,41.05
2018-05-10T07:56:35.723Z,40.92
2018-05-10T08:01:08.958Z,40.38
2018-05-10T08:05:43.234Z,40.33
2018-05-10T08:10:17.215Z,44.00
2018-05-10T08:14:50.422Z,44.72
2018-05-10T08:19:23.614Z,46.70
2018-05-10T08:23:56.801Z,46.03
2018-05-10T08:28:30.227Z,41.17
2018-05-10T08:33:03.431Z,40.33
2018-05-10T08:37:37.026Z,39.85
2018-05-10T08:42:10.234Z,37.53
2018-05-10T08:46:43.438Z,29.73
2018-05-10T08:51:16.629Z,24.95
2018-05-10T08:55:49.845Z,21.48
2018-05-10T09:00:23.051Z,15.60
2018-05-10T09:04:56.249Z,13.80
2018-05-10T09:09:31.205Z,11.77
2018-05-10T09:14:05.513Z,11.55
2018-05-10T09:18:40.683Z,11.03
2018-05-10T09:23:14.170Z,8.35
2018-05-10T09:27:47.671Z,8.70
2018-05-10T09:32:21.092Z,7.60
2018-05-10T09:36:54.292Z,6.67
2018-05-10T09:41:27.507Z,6.17
2018-05-10T09:46:01.438Z,7.50
2018-05-10T09:50:35.415Z,7.90
2018-05-10T09:55:08.603Z,5.60
2018-05-10T09:59:41.801Z,4.80
2018-05-10T10:04:15.007Z,4.63
2018-05-10T10:08:48.198Z,4.57
2018-05-10T10:13:22.155Z,3.80
2018-05-10T10:17:55.343Z,3.90
2018-05-10T10:22:28.502Z,3.80
2018-05-10T10:27:01.691Z,3.83
2018-05-10T10:31:34.899Z,4.68
2018-05-10T10:36:08.143Z,4.57
2018-05-10T10:40:42.099Z,4.60
2018-05-10T10:45:16.005Z,4.85
2018-05-10T10:49:49.204Z,5.00
2018-05-10T10:54:23.163Z,5.35
2018-05-10T10:58:56.403Z,4.50
2018-05-10T11:03:29.574Z,4.97
2018-05-10T11:08:02.765Z,4.50
2018-05-10T11:12:35.950Z,4.32
2018-05-10T11:17:09.255Z,4.35
2018-05-10T11:21:43.187Z,4.22
2018-05-10T11:26:17.161Z,4.10
2018-05-10T11:30:50.333Z,4.45
2018-05-10T11:35:25.284Z,4.05
2018-05-10T11:39:58.664Z,3.70
2018-05-10T11:44:32.015Z,4.25
2018-05-10T11:49:06.004Z,3.90
2018-05-10T11:53:40.126Z,4.05
2018-05-10T11:58:13.476Z,3.75
2018-05-10T12:02:46.666Z,3.12
2018-05-10T12:07:19.843Z,7.72
2018-05-10T12:11:53.046Z,2.87
2018-05-10T12:16:26.215Z,3.00
2018-05-10T12:20:59.406Z,3.10
2018-05-10T12:25:32.693Z,2.50
2018-05-10T12:30:05.809Z,2.58
2018-05-10T12:34:38.995Z,3.30
2018-05-10T12:39:12.950Z,2.97
2018-05-10T12:43:46.146Z,2.85
2018-05-10T12:48:20.102Z,2.90
2018-05-10T12:52:53.277Z,3.33
2018-05-10T12:57:26.561Z,2.55
2018-05-10T13:02:00.542Z,2.55
2018-05-10T13:06:33.707Z,2.95
2018-05-10T13:11:06.918Z,2.67
2018-05-10T13:15:40.086Z,2.67
2018-05-10T13:20:13.355Z,2.60
2018-05-10T13:24:47.264Z,3.00
2018-05-10T13:29:20.451Z,2.95
2018-05-10T13:33:53.662Z,2.60
2018-05-10T13:38:26.883Z,2.90
2018-05-10T13:43:00.806Z,2.87
2018-05-10T13:47:34.139Z,3.20
2018-05-10T13:52:08.015Z,2.40
2018-05-10T13:56:41.971Z,2.35
2018-05-10T14:01:15.172Z,2.78
2018-05-10T14:05:48.370Z,2.47
2018-05-10T14:10:21.555Z,2.50
2018-05-10T14:14:55.515Z,2.30
2018-05-10T14:19:28.715Z,2.20
2018-05-10T14:24:01.913Z,2.28
2018-05-10T14:28:35.096Z,2.15
2018-05-10T14:33:09.055Z,1.90
2018-05-10T14:37:42.246Z,1.70
2018-05-10T14:42:15.450Z,2.25
2018-05-10T14:46:48.749Z,1.90
2018-05-10T14:51:21.871Z,1.80
2018-05-10T14:55:55.154Z,2.05
2018-05-10T15:00:28.711Z,2.10
2018-05-10T15:05:01.905Z,2.25
2018-05-10T15:09:35.094Z,2.25
2018-05-10T15:14:09.075Z,2.30
2018-05-10T15:18:42.263Z,2.42
2018-05-10T15:23:15.453Z,2.53
2018-05-10T15:27:48.648Z,2.60
2018-05-10T15:32:21.806Z,3.78
2018-05-10T15:36:55.024Z,2.78
2018-05-10T15:41:29.695Z,2.42
2018-05-10T15:46:02.886Z,2.90
2018-05-10T15:50:36.854Z,11.15
2018-05-10T15:55:10.059Z,5.20
2018-05-10T15:59:43.253Z,4.40
2018-05-10T16:04:16.473Z,3.65
2018-05-10T16:08:49.734Z,3.22
2018-05-10T16:13:23.686Z,3.30
2018-05-10T16:17:57.857Z,3.45
2018-05-10T16:22:31.127Z,4.07
2018-05-10T16:27:04.341Z,3.72
2018-05-10T16:31:37.511Z,2.25
2018-05-10T16:36:11.461Z,3.85
2018-05-10T16:40:44.656Z,3.72
2018-05-10T16:45:18.622Z,2.72
2018-05-10T16:49:51.812Z,3.03
2018-05-10T16:54:25.002Z,2.33
2018-05-10T16:58:58.202Z,2.45
2018-05-10T17:03:31.409Z,2.30
2018-05-10T17:08:04.623Z,2.53
2018-05-10T17:12:37.830Z,1.92
2018-05-10T17:17:12.051Z,2.17
2018-05-10T17:21:45.304Z,2.62
2018-05-10T17:26:18.500Z,2.30
2018-05-10T17:30:52.016Z,1.85
2018-05-10T17:35:25.257Z,1.92
2018-05-10T17:39:58.447Z,2.47
2018-05-10T17:44:31.639Z,2.00
2018-05-10T17:49:04.822Z,1.90
2018-05-10T17:53:38.010Z,2.00
2018-05-10T17:58:11.979Z,12.70
2018-05-10T18:02:45.382Z,2.90
2018-05-10T18:07:18.662Z,7.57
2018-05-10T18:11:51.827Z,4.12
2018-05-10T18:16:25.034Z,10.85
2018-05-10T18:20:58.234Z,8.23
2018-05-10T18:25:31.461Z,6.15
2018-05-10T18:30:05.394Z,2.87
2018-05-10T18:34:39.356Z,2.62
2018-05-10T18:39:12.552Z,2.58
2018-05-10T18:43:45.753Z,2.65
2018-05-10T18:48:18.959Z,2.12
2018-05-10T18:52:52.166Z,4.95
2018-05-10T18:57:25.445Z,8.50
2018-05-10T19:01:59.406Z,7.62
2018-05-10T19:06:32.626Z,8.60
2018-05-10T19:11:05.828Z,5.22
2018-05-10T19:15:39.375Z,21.23
2018-05-10T19:20:12.584Z,9.63
2018-05-10T19:24:45.752Z,4.27
2018-05-10T19:29:18.943Z,3.33
2018-05-10T19:33:52.162Z,3.63
2018-05-10T19:38:25.350Z,3.90
2018-05-10T19:42:59.282Z,4.37
2018-05-10T19:47:32.494Z,3.47
2018-05-10T19:52:05.695Z,3.70
2018-05-10T19:56:38.983Z,3.90
2018-05-10T20:01:12.183Z,3.27
2018-05-10T20:05:46.145Z,3.63
2018-05-10T20:10:19.334Z,3.20
2018-05-10T20:14:52.538Z,3.00
2018-05-10T20:19:26.502Z,2.87
2018-05-10T20:23:59.764Z,4.07
2018-05-10T20:28:32.931Z,3.00
2018-05-10T20:33:06.122Z,2.10
2018-05-10T20:37:39.315Z,1.80
2018-05-10T20:42:12.502Z,2.20
2018-05-10T20:46:45.687Z,1.93
2018-05-10T20:51:19.634Z,2.50
2018-05-10T20:55:52.843Z,2.27
2018-05-10T21:00:26.038Z,2.00
2018-05-10T21:04:59.997Z,2.00
2018-05-10T21:09:33.169Z,2.30
2018-05-10T21:14:07.177Z,2.17
2018-05-10T21:18:41.138Z,2.20
2018-05-10T21:23:14.396Z,2.17
2018-05-10T21:27:47.547Z,2.73
2018-05-10T21:32:20.771Z,2.20
2018-05-10T21:36:53.934Z,2.50
2018-05-10T21:41:27.886Z,2.10
2018-05-10T21:46:01.099Z,2.37
2018-05-10T21:50:34.294Z,2.00
2018-05-10T21:55:07.503Z,7.17
2018-05-10T21:59:40.672Z,6.80
2018-05-10T22:04:13.866Z,6.43
2018-05-10T22:08:47.115Z,4.70
2018-05-10T22:13:21.080Z,3.97
2018-05-10T22:17:54.262Z,4.37
2018-05-10T22:22:27.478Z,2.80
2018-05-10T22:27:00.671Z,3.90
2018-05-10T22:31:33.890Z,2.90
2018-05-10T22:36:07.087Z,3.27
2018-05-10T22:40:40.270Z,3.43
2018-05-10T22:45:14.235Z,9.60
2018-05-10T22:49:47.522Z,20.27
2018-05-10T22:54:20.736Z,10.10
2018-05-10T22:58:53.930Z,13.03
2018-05-10T23:03:27.128Z,11.33
2018-05-10T23:08:00.326Z,12.80
2018-05-10T23:12:34.286Z,8.70
2018-05-10T23:17:07.489Z,5.47
2018-05-10T23:21:40.682Z,4.83
2018-05-10T23:26:13.911Z,9.30
2018-05-10T23:30:47.102Z,3.90
2018-05-10T23:35:20.286Z,3.37
2018-05-10T23:39:54.259Z,22.80
2018-05-10T23:44:27.461Z,4.20
2018-05-10T23:49:00.654Z,10.33
2018-05-10T23:53:33.847Z,19.63
2018-05-10T23:58:07.050Z,12.13
